Time;durP1;ratioP1;P1;durP2;ratioP2;P2;SDS_P1;SDS_P2;PMS_P1;PMS_P2;Temp;Humidity;BMP_temperature;BMP_pressure;BME280_temperature;BME280_humidity;BME280_pressure;Samples;Min_cycle;Max_cycle;Signal;HPM_P1;HPM_P2
2023/03/19 00:00:28;;;;;;;11.05;5.90;;;13.50;99.90;;;;;;5004952;28;20034;-79
2023/03/19 00:02:54;;;;;;;14.02;6.30;;;12.80;99.90;;;;;;5004161;28;20038;-83
2023/03/19 00:05:19;;;;;;;11.52;6.15;;;13.00;99.90;;;;;;5000268;28;20035;-83
2023/03/19 00:07:45;;;;;;;15.13;6.53;;;12.80;99.90;;;;;;5001817;28;20018;-81
2023/03/19 00:10:11;;;;;;;12.00;5.60;;;13.40;99.90;;;;;;5001320;28;20034;-83
2023/03/19 00:12:36;;;;;;;12.30;5.47;;;13.30;99.90;;;;;;4999394;28;20048;-82
2023/03/19 00:15:02;;;;;;;10.07;5.57;;;12.60;99.90;;;;;;5007851;28;20054;-83
2023/03/19 00:17:28;;;;;;;12.05;7.63;;;12.80;99.90;;;;;;5005965;28;20035;-81
2023/03/19 00:19:54;;;;;;;13.05;7.10;;;11.20;99.90;;;;;;5007322;28;20044;-80
2023/03/19 00:22:19;;;;;;;14.60;8.45;;;12.90;99.90;;;;;;4998739;28;20073;-82
2023/03/19 00:24:45;;;;;;;13.48;7.43;;;;;;;;;;5008525;28;20037;-82
2023/03/19 00:27:11;;;;;;;16.50;7.45;;;12.70;99.90;;;;;;5006166;28;20058;-82
2023/03/19 00:29:37;;;;;;;15.95;9.43;;;13.90;99.90;;;;;;5004339;28;20019;-81
2023/03/19 00:32:06;;;;;;;15.02;7.75;;;12.60;99.90;;;;;;5008504;28;20042;-83
2023/03/19 00:34:32;;;;;;;11.57;7.40;;;12.60;99.90;;;;;;5006480;28;20042;-79
2023/03/19 00:36:57;;;;;;;15.48;8.30;;;12.50;99.90;;;;;;5003561;28;20022;-83
2023/03/19 00:39:23;;;;;;;14.95;7.97;;;;;;;;;;5007515;28;20220;-81
2023/03/19 00:41:49;;;;;;;13.10;7.50;;;12.40;99.90;;;;;;5006641;28;20103;-81
2023/03/19 00:44:17;;;;;;;10.68;6.30;;;12.30;99.90;;;;;;5013778;28;20014;-80
2023/03/19 00:46:42;;;;;;;16.88;8.15;;;12.30;99.90;;;;;;5003753;28;20086;-79
2023/03/19 00:49:08;;;;;;;11.90;7.43;;;12.30;99.90;;;;;;5009441;28;20110;-79
2023/03/19 00:51:34;;;;;;;13.20;7.00;;;12.20;99.90;;;;;;5005324;28;20078;-78
2023/03/19 00:54:00;;;;;;;10.43;6.28;;;;;;;;;;5010085;28;20098;-80
2023/03/19 00:56:25;;;;;;;12.10;6.35;;;12.20;99.90;;;;;;5017472;28;20030;-80
2023/03/19 00:58:51;;;;;;;9.95;6.10;;;15.30;99.90;;;;;;5008315;28;20065;-79
2023/03/19 01:01:17;;;;;;;12.27;6.70;;;;;;;;;;5006647;28;20053;-79
2023/03/19 01:03:47;;;;;;;15.20;6.35;;;12.10;99.90;;;;;;5014131;28;20025;-77
2023/03/19 01:06:13;;;;;;;8.90;5.38;;;12.00;99.90;;;;;;5009756;28;20029;-80
2023/03/19 01:08:39;;;;;;;12.32;4.80;;;12.50;99.90;;;;;;5014692;28;20015;-80
2023/03/19 01:11:07;;;;;;;8.75;4.47;;;12.00;99.90;;;;;;5011892;28;20014;-78
2023/03/19 01:13:33;;;;;;;10.10;4.35;;;11.90;99.90;;;;;;5011025;28;20029;-81
2023/03/19 01:15:59;;;;;;;10.95;4.65;;;11.90;99.90;;;;;;5013182;28;20038;-79
2023/03/19 01:18:25;;;;;;;7.85;4.40;;;11.90;99.90;;;;;;5016872;28;20031;-82
2023/03/19 01:20:51;;;;;;;7.68;4.28;;;11.80;99.90;;;;;;5013045;28;20037;-79
2023/03/19 01:23:17;;;;;;;9.82;4.18;;;11.80;99.90;;;;;;5008138;28;20015;-77
2023/03/19 01:25:43;;;;;;;12.20;4.13;;;12.30;99.90;;;;;;5007285;28;20364;-79
2023/03/19 01:28:09;;;;;;;8.77;4.10;;;;;;;;;;5013057;28;20022;-79
2023/03/19 01:30:39;;;;;;;6.40;4.18;;;11.70;99.90;;;;;;5010056;28;20022;-79
2023/03/19 01:33:06;;;;;;;;;;;14.50;99.90;;;;;;5343888;22;20045;-80
2023/03/19 01:35:31;;;;;;;10.43;5.30;;;12.40;99.90;;;;;;5019277;28;19957;-80
2023/03/19 01:37:58;;;;;;;10.48;4.75;;;11.80;99.90;;;;;;5015641;28;20034;-80
2023/03/19 01:40:24;;;;;;;10.32;5.75;;;11.80;99.90;;;;;;5018882;28;20046;-81
2023/03/19 01:43:09;;;;;;;7.15;4.47;;;13.10;99.90;;;;;;5015611;28;20125;-78
2023/03/19 01:45:37;;;;;;;10.82;5.53;;;13.40;99.90;;;;;;5030547;28;20097;-79
2023/03/19 01:48:05;;;;;;;8.93;4.63;;;13.00;99.90;;;;;;4991861;28;20057;-79
2023/03/19 01:50:40;;;;;;;10.70;4.65;;;11.50;99.90;;;;;;4995298;28;20018;-81
2023/03/19 01:53:08;;;;;;;9.18;4.93;;;11.50;99.90;;;;;;5007576;28;20007;-78
2023/03/19 01:55:34;;;;;;;7.55;4.10;;;11.40;99.90;;;;;;5013764;28;20030;-82
2023/03/19 01:58:00;;;;;;;9.68;3.97;;;13.30;99.90;;;;;;5011797;28;20022;-81
2023/03/19 02:00:28;;;;;;;9.50;4.30;;;11.40;99.90;;;;;;5014915;28;20038;-79
2023/03/19 02:02:58;;;;;;;9.77;4.72;;;11.90;99.90;;;;;;5014963;28;20042;-80
2023/03/19 02:05:25;;;;;;;6.20;3.97;;;11.90;99.90;;;;;;5014282;28;20026;-79
2023/03/19 02:07:53;;;;;;;9.43;5.05;;;11.50;99.90;;;;;;5011965;28;20055;-79
2023/03/19 02:10:22;;;;;;;8.40;4.70;;;11.60;99.90;;;;;;5018496;28;20077;-79
2023/03/19 02:12:48;;;;;;;7.88;4.13;;;11.30;99.90;;;;;;5012871;28;20022;-79
2023/03/19 02:15:14;;;;;;;6.82;3.63;;;11.20;99.90;;;;;;5013511;28;20020;-79
2023/03/19 02:17:41;;;;;;;8.50;4.00;;;11.20;99.90;;;;;;5012180;28;20023;-80
2023/03/19 02:20:29;;;;;;;8.48;4.22;;;11.20;99.90;;;;;;5009993;28;20023;-78
2023/03/19 02:23:18;;;;;;;7.60;4.03;;;11.10;99.90;;;;;;5017196;28;20035;-80
2023/03/19 02:25:46;;;;;;;6.88;4.20;;;11.10;99.90;;;;;;5011728;28;20041;-77
2023/03/19 02:28:16;;;;;;;8.15;3.80;;;12.00;99.90;;;;;;5011059;28;20113;-79
2023/03/19 02:30:43;;;;;;;8.13;3.90;;;11.10;99.90;;;;;;5011906;28;20025;-79
2023/03/19 02:33:16;;;;;;;9.15;4.28;;;11.00;99.90;;;;;;5006842;28;20273;-80
2023/03/19 02:35:45;;;;;;;10.05;4.30;;;11.60;99.90;;;;;;5013783;28;20086;-80
2023/03/19 02:38:13;;;;;;;9.73;4.13;;;11.90;99.90;;;;;;5009919;28;20015;-79
2023/03/19 02:40:46;;;;;;;8.07;3.97;;;11.80;99.90;;;;;;5012763;28;20114;-80
2023/03/19 02:43:11;;;;;;;7.50;4.03;;;12.40;99.90;;;;;;5013852;28;20033;-81
2023/03/19 02:45:37;;;;;;;8.57;4.30;;;12.60;99.90;;;;;;5012269;28;20042;-80
2023/03/19 02:48:03;;;;;;;8.68;3.55;;;11.80;99.90;;;;;;5011871;28;20097;-79
2023/03/19 02:50:29;;;;;;;7.28;3.78;;;11.00;99.90;;;;;;5011617;28;20041;-78
2023/03/19 02:52:55;;;;;;;9.60;4.13;;;9.30;99.90;;;;;;5010254;28;20086;-79
2023/03/19 02:55:21;;;;;;;7.60;3.50;;;12.20;99.90;;;;;;5014770;28;20011;-79
2023/03/19 02:57:47;;;;;;;8.32;4.22;;;;;;;;;;5013182;28;20041;-81
2023/03/19 03:00:13;;;;;;;6.40;3.47;;;11.10;99.90;;;;;;5014532;28;20095;-80
2023/03/19 03:02:39;;;;;;;5.82;3.50;;;11.10;99.90;;;;;;5013168;28;20078;-80
2023/03/19 03:05:05;;;;;;;7.35;3.83;;;11.30;99.90;;;;;;5008074;28;20106;-79
2023/03/19 03:07:32;;;;;;;6.47;3.80;;;11.10;99.90;;;;;;5010689;28;20058;-79
2023/03/19 03:10:00;;;;;;;8.57;3.80;;;12.20;99.90;;;;;;5010657;28;20135;-79
2023/03/19 03:12:26;;;;;;;6.75;3.42;;;13.30;99.90;;;;;;5005653;28;20063;-80
2023/03/19 03:14:51;;;;;;;7.57;3.63;;;13.40;99.90;;;;;;5006227;28;20049;-80
2023/03/19 03:17:18;;;;;;;6.65;3.55;;;11.50;99.90;;;;;;5002002;28;20033;-79
2023/03/19 03:19:43;;;;;;;7.28;3.45;;;11.10;99.90;;;;;;5012220;28;20018;-80
2023/03/19 03:22:10;;;;;;;7.82;3.28;;;11.60;99.90;;;;;;5010104;28;20022;-79
2023/03/19 03:24:38;;;;;;;7.63;3.58;;;11.20;99.90;;;;;;5019589;28;20019;-81
2023/03/19 03:27:03;;;;;;;5.38;3.22;;;11.60;99.90;;;;;;5015098;28;20010;-82
2023/03/19 03:29:32;;;;;;;5.18;3.30;;;11.10;99.90;;;;;;5012042;28;21071;-80
2023/03/19 03:31:57;;;;;;;6.95;3.60;;;13.40;99.90;;;;;;5011297;28;20006;-81
2023/03/19 03:34:23;;;;;;;9.85;3.70;;;11.00;99.90;;;;;;4998934;28;20025;-81
2023/03/19 03:36:48;;;;;;;6.35;3.80;;;11.00;99.90;;;;;;5011862;28;20971;-80
2023/03/19 03:39:15;;;;;;;8.43;3.67;;;13.30;99.90;;;;;;5012805;28;20333;-79
2023/03/19 03:41:41;;;;;;;8.68;3.40;;;10.90;99.90;;;;;;5009269;28;20026;-80
2023/03/19 03:44:07;;;;;;;6.63;3.55;;;10.90;99.90;;;;;;5003006;28;20018;-78
2023/03/19 03:46:33;;;;;;;11.35;3.83;;;10.90;99.90;;;;;;5009661;28;20045;-79
2023/03/19 03:48:59;;;;;;;9.65;3.35;;;;;;;;;;5010694;28;20018;-80
2023/03/19 03:51:25;;;;;;;5.65;3.63;;;10.90;99.90;;;;;;5009754;28;20054;-81
2023/03/19 03:53:50;;;;;;;5.95;3.92;;;11.00;99.90;;;;;;5009672;28;20301;-78
2023/03/19 03:56:19;;;;;;;6.20;3.60;;;;;;;;;;5007005;28;20014;-80
2023/03/19 03:58:46;;;;;;;6.82;3.70;;;11.00;99.90;;;;;;5006590;28;20038;-79
2023/03/19 04:01:16;;;;;;;9.27;3.92;;;11.00;99.90;;;;;;5084731;23;20031;-80
2023/03/19 04:03:43;;;;;;;8.40;3.45;;;;;;;;;;4992476;28;20015;-78
2023/03/19 04:06:17;;;;;;;5.65;3.58;;;11.00;99.90;;;;;;4985948;28;20030;-78
2023/03/19 04:08:43;;;;;;;6.95;3.55;;;11.00;99.90;;;;;;4987841;28;20015;-79
2023/03/19 04:11:10;;;;;;;8.40;3.72;;;12.70;99.90;;;;;;4969335;28;20016;-80
2023/03/19 04:13:36;;;;;;;6.65;3.40;;;11.10;99.90;;;;;;4968940;28;20037;-80
2023/03/19 04:16:06;;;;;;;7.20;3.33;;;11.10;99.90;;;;;;4988022;28;20095;-79
2023/03/19 04:18:32;;;;;;;9.45;3.85;;;11.10;99.90;;;;;;4968338;28;20008;-79
2023/03/19 04:20:59;;;;;;;6.72;3.50;;;11.50;99.90;;;;;;4986922;28;20047;-79
2023/03/19 04:23:25;;;;;;;9.05;3.83;;;11.10;99.90;;;;;;4984750;28;20456;-79
2023/03/19 04:25:51;;;;;;;7.45;3.33;;;11.10;99.90;;;;;;4971203;28;20022;-79
2023/03/19 04:28:16;;;;;;;7.95;3.80;;;11.20;99.90;;;;;;4971725;28;20042;-80
2023/03/19 04:30:43;;;;;;;6.88;3.42;;;11.20;99.90;;;;;;4967073;28;20287;-79
2023/03/19 04:33:10;;;;;;;5.80;3.28;;;11.20;99.90;;;;;;4970714;28;20130;-79
2023/03/19 04:35:36;;;;;;;7.32;3.45;;;11.10;99.90;;;;;;4975338;28;20035;-81
2023/03/19 04:38:02;;;;;;;10.27;3.45;;;11.90;99.90;;;;;;4976525;28;20043;-79
2023/03/19 04:40:28;;;;;;;5.85;3.72;;;11.10;99.90;;;;;;4971815;28;20083;-80
2023/03/19 04:42:55;;;;;;;6.13;3.63;;;11.30;99.90;;;;;;4969901;28;20034;-79
2023/03/19 04:45:20;;;;;;;7.55;3.45;;;11.40;99.90;;;;;;4972244;28;20113;-79
2023/03/19 04:47:46;;;;;;;10.27;3.60;;;11.10;99.90;;;;;;4969045;28;20034;-79
2023/03/19 04:50:12;;;;;;;4.93;3.03;;;11.10;99.90;;;;;;4966142;28;20015;-78
2023/03/19 04:52:38;;;;;;;6.82;3.30;;;9.90;99.90;;;;;;4965998;28;20036;-79
2023/03/19 04:55:08;;;;;;;8.98;3.50;;;11.00;99.90;;;;;;4972108;28;20087;-79
2023/03/19 04:57:35;;;;;;;8.25;3.63;;;;;;;;;;4971008;28;20040;-80
2023/03/19 05:00:01;;;;;;;7.68;3.63;;;11.00;99.90;;;;;;4973508;28;20035;-80
2023/03/19 05:02:27;;;;;;;5.95;3.20;;;11.00;99.90;;;;;;4968660;28;20043;-79
2023/03/19 05:23:00;;;;;;;6.43;3.42;;;11.00;99.90;;;;;;5018168;28;20053;-86
2023/03/19 05:26:23;;;;;;;7.65;3.80;;;11.00;99.90;;;;;;5021318;28;20026;-87
2023/03/19 05:29:10;;;;;;;7.13;3.55;;;11.00;99.90;;;;;;5006078;28;20025;-85
2023/03/19 05:31:37;;;;;;;5.95;3.22;;;10.90;99.90;;;;;;5020910;28;20387;-87
2023/03/19 05:34:03;;;;;;;7.55;3.78;;;10.90;99.90;;;;;;5020120;28;20363;-85
2023/03/19 05:36:28;;;;;;;7.88;3.72;;;11.10;99.90;;;;;;5019732;28;20025;-87
2023/03/19 05:38:55;;;;;;;7.53;3.92;;;10.90;99.90;;;;;;5020067;28;20040;-84
2023/03/19 05:41:20;;;;;;;8.13;3.90;;;10.90;99.90;;;;;;5013638;28;20391;-87
2023/03/19 05:43:46;;;;;;;7.38;3.60;;;11.00;99.90;;;;;;5018231;28;20029;-86
2023/03/19 05:46:12;;;;;;;11.18;3.75;;;10.90;99.90;;;;;;5015296;28;20042;-85
2023/03/19 05:48:37;;;;;;;9.57;3.75;;;10.90;99.90;;;;;;5009806;28;20029;-87
2023/03/19 05:51:03;;;;;;;8.55;4.20;;;10.90;99.90;;;;;;5013128;28;20026;-87
2023/03/19 05:53:29;;;;;;;7.35;3.92;;;10.90;99.90;;;;;;5013938;28;20018;-86
2023/03/19 05:55:55;;;;;;;8.55;4.18;;;10.80;99.90;;;;;;5013189;28;20071;-89
2023/03/19 05:58:20;;;;;;;10.38;3.60;;;10.90;99.90;;;;;;4995917;28;20044;-87
2023/03/19 06:00:47;;;;;;;8.80;4.25;;;10.80;99.90;;;;;;5017264;28;20033;-86
2023/03/19 06:03:13;;;;;;;6.65;4.05;;;11.60;99.90;;;;;;5019571;28;20124;-90
2023/03/19 06:05:39;;;;;;;8.95;3.95;;;10.70;99.90;;;;;;5014841;28;20026;-88
2023/03/19 06:08:05;;;;;;;7.88;3.58;;;11.70;99.90;;;;;;5017710;28;20025;-88
2023/03/19 06:10:33;;;;;;;6.55;3.88;;;10.80;99.90;;;;;;5025366;28;20054;-87
2023/03/19 06:12:58;;;;;;;8.98;3.95;;;10.70;99.90;;;;;;5022923;28;20053;-87
2023/03/19 06:15:25;;;;;;;7.68;4.22;;;10.70;99.90;;;;;;5022060;28;20117;-87
2023/03/19 06:17:51;;;;;;;6.30;3.83;;;10.70;99.90;;;;;;5023334;28;20029;-86
2023/03/19 06:20:16;;;;;;;5.63;3.58;;;10.70;99.90;;;;;;5023219;28;20030;-84
2023/03/19 06:22:43;;;;;;;12.50;3.92;;;10.70;99.90;;;;;;5021727;28;20057;-89
2023/03/19 06:25:09;;;;;;;6.43;3.67;;;11.50;99.90;;;;;;5012705;28;20026;-82
2023/03/19 06:27:35;;;;;;;8.63;4.38;;;10.90;99.90;;;;;;5021350;28;20041;-85
2023/03/19 06:30:00;;;;;;;7.40;3.78;;;10.80;99.90;;;;;;5028944;28;20033;-83
2023/03/19 06:32:26;;;;;;;9.35;3.90;;;10.80;99.90;;;;;;5023403;28;20030;-85
2023/03/19 06:34:52;;;;;;;8.63;3.92;;;10.90;99.90;;;;;;5022374;28;20026;-82
2023/03/19 06:37:18;;;;;;;6.72;3.58;;;10.80;99.90;;;;;;5024144;28;20030;-82
2023/03/19 06:39:43;;;;;;;8.80;3.85;;;10.80;99.90;;;;;;5022088;28;20057;-84
2023/03/19 06:42:09;;;;;;;8.77;3.53;;;10.90;99.90;;;;;;5023735;28;20034;-83
2023/03/19 06:44:34;;;;;;;6.50;3.80;;;11.10;99.90;;;;;;5023999;28;20032;-88
2023/03/19 06:47:00;;;;;;;6.95;3.58;;;11.00;99.90;;;;;;5023416;28;20033;-84
2023/03/19 06:49:26;;;;;;;8.65;4.00;;;11.20;99.90;;;;;;5018606;28;20463;-84
2023/03/19 06:51:51;;;;;;;7.70;3.72;;;11.20;99.90;;;;;;5022198;28;20041;-83
2023/03/19 06:54:17;;;;;;;8.50;4.03;;;11.20;99.90;;;;;;5015050;28;20030;-86
2023/03/19 06:56:43;;;;;;;6.03;3.40;;;11.20;99.90;;;;;;5018632;28;20026;-82
2023/03/19 06:59:11;;;;;;;6.20;3.65;;;11.30;99.90;;;;;;5021802;28;20022;-84
2023/03/19 07:01:39;;;;;;;6.88;3.97;;;11.80;99.90;;;;;;5024914;28;20033;-85
2023/03/19 07:04:05;;;;;;;5.63;3.47;;;11.40;99.90;;;;;;5025459;28;20018;-85
2023/03/19 07:06:32;;;;;;;7.00;3.80;;;11.20;99.90;;;;;;5025876;28;20193;-85
2023/03/19 07:08:58;;;;;;;7.00;4.00;;;11.20;99.90;;;;;;5024466;28;20046;-87
2023/03/19 07:11:23;;;;;;;10.57;3.67;;;11.50;99.90;;;;;;5023217;28;20030;-85
2023/03/19 07:13:49;;;;;;;9.82;4.03;;;12.60;99.90;;;;;;5022529;28;20034;-84
2023/03/19 07:16:15;;;;;;;7.13;3.78;;;11.30;99.90;;;;;;5023930;28;20500;-86
2023/03/19 07:18:40;;;;;;;6.38;3.65;;;11.30;99.90;;;;;;5022812;28;20041;-86
2023/03/19 07:21:06;;;;;;;6.95;3.60;;;11.40;99.90;;;;;;5023778;28;20041;-86
2023/03/19 07:23:32;;;;;;;7.80;3.92;;;11.40;99.90;;;;;;5022575;28;20033;-82
2023/03/19 07:25:57;;;;;;;6.85;3.65;;;11.30;99.90;;;;;;5022234;28;20030;-81
2023/03/19 07:28:23;;;;;;;7.60;4.50;;;11.50;99.90;;;;;;5022229;28;20021;-87
2023/03/19 07:30:51;;;;;;;6.22;3.55;;;11.50;99.90;;;;;;5022738;28;20029;-86
2023/03/19 07:33:18;;;;;;;9.50;4.10;;;11.50;99.90;;;;;;5021731;28;20482;-86
2023/03/19 07:35:44;;;;;;;8.70;4.53;;;12.90;99.90;;;;;;5021722;28;20117;-84
2023/03/19 07:38:09;;;;;;;8.35;4.40;;;11.80;99.90;;;;;;5022424;28;20029;-85
2023/03/19 07:40:35;;;;;;;7.10;4.20;;;11.80;99.90;;;;;;5022577;28;20172;-87
2023/03/19 07:43:01;;;;;;;6.53;3.88;;;11.80;99.90;;;;;;5023538;28;20030;-87
2023/03/19 07:45:27;;;;;;;6.93;3.55;;;11.70;99.90;;;;;;5022564;28;20113;-85
2023/03/19 07:47:52;;;;;;;10.02;4.18;;;12.00;99.90;;;;;;5022381;28;20084;-83
2023/03/19 07:50:21;;;;;;;7.18;3.63;;;11.80;99.90;;;;;;5023277;28;20155;-85
2023/03/19 07:52:48;;;;;;;6.05;3.80;;;12.00;99.90;;;;;;5021673;28;20033;-87
2023/03/19 07:55:14;;;;;;;7.68;3.97;;;11.90;99.90;;;;;;5022210;28;20029;-87
2023/03/19 07:57:40;;;;;;;7.88;3.97;;;11.90;99.90;;;;;;5022272;28;20030;-90
2023/03/19 08:00:07;;;;;;;6.03;3.80;;;11.90;99.90;;;;;;5023766;28;20041;-87
2023/03/19 08:02:32;;;;;;;9.60;4.10;;;12.00;99.90;;;;;;5022875;28;20018;-88
2023/03/19 08:05:00;;;;;;;8.45;4.22;;;12.10;99.90;;;;;;5022544;28;20053;-88
2023/03/19 08:07:26;;;;;;;10.30;4.25;;;11.30;99.90;;;;;;5006144;28;20109;-87
2023/03/19 08:09:52;;;;;;;6.05;3.90;;;12.40;99.90;;;;;;5003009;28;20494;-86
2023/03/19 08:12:18;;;;;;;7.43;3.75;;;12.50;99.90;;;;;;5018766;28;20018;-88
2023/03/19 08:14:44;;;;;;;8.35;3.58;;;12.30;99.90;;;;;;5023214;28;20115;-88
2023/03/19 08:17:10;;;;;;;7.38;4.00;;;12.50;99.90;;;;;;4991071;28;20030;-87
2023/03/19 08:19:36;;;;;;;6.75;3.78;;;12.70;99.90;;;;;;5011030;28;20045;-84
2023/03/19 08:22:01;;;;;;;5.70;3.55;;;12.50;99.90;;;;;;5019236;28;20410;-86
2023/03/19 08:24:27;;;;;;;7.65;3.83;;;12.50;99.90;;;;;;5013402;28;20030;-88
2023/03/19 08:26:52;;;;;;;10.68;4.43;;;12.40;99.90;;;;;;5017731;28;20033;-85
2023/03/19 08:29:18;;;;;;;7.60;3.78;;;12.50;99.90;;;;;;5003037;28;20058;-88
2023/03/19 08:31:44;;;;;;;6.18;3.65;;;12.50;99.90;;;;;;5002256;28;20034;-89
2023/03/19 08:34:09;;;;;;;7.63;4.43;;;12.30;99.90;;;;;;5002140;28;20422;-87
2023/03/19 08:36:35;;;;;;;10.30;4.00;;;12.30;99.90;;;;;;5002631;28;20580;-86
2023/03/19 08:39:01;;;;;;;7.97;4.05;;;12.20;99.90;;;;;;5004768;28;20060;-87
2023/03/19 08:41:27;;;;;;;10.10;4.53;;;12.10;99.90;;;;;;5002954;28;20049;-86
2023/03/19 08:43:52;;;;;;;10.43;4.75;;;11.90;99.90;;;;;;5019581;28;20166;-86
2023/03/19 08:46:18;;;;;;;7.93;4.43;;;11.90;99.90;;;;;;5010282;28;20030;-89
2023/03/19 08:48:44;;;;;;;8.13;4.53;;;12.00;99.90;;;;;;5004942;28;20522;-86
2023/03/19 08:51:10;;;;;;;7.60;4.22;;;11.50;99.90;;;;;;5002725;28;20038;-83
2023/03/19 08:53:36;;;;;;;6.28;3.97;;;11.30;99.90;;;;;;5001831;28;20069;-85
2023/03/19 08:56:05;;;;;;;13.25;5.03;;;11.20;99.90;;;;;;5011823;28;20034;-89
2023/03/19 08:58:31;;;;;;;7.53;4.40;;;11.30;99.90;;;;;;5002000;28;20031;-86
2023/03/19 09:01:04;;;;;;;8.68;4.57;;;11.40;99.90;;;;;;5001778;28;20061;-87
2023/03/19 09:03:31;;;;;;;9.38;4.60;;;11.40;99.90;;;;;;5011761;28;20026;-88
2023/03/19 09:06:01;;;;;;;9.88;4.72;;;11.80;99.90;;;;;;5018231;28;20037;-86
2023/03/19 09:08:27;;;;;;;7.65;4.65;;;11.50;99.90;;;;;;5018500;28;20037;-85
2023/03/19 09:10:54;;;;;;;6.88;4.45;;;11.60;99.90;;;;;;5023752;28;20026;-85
2023/03/19 09:13:20;;;;;;;9.95;5.28;;;11.60;99.90;;;;;;5013253;28;20022;-82
2023/03/19 09:15:45;;;;;;;7.95;4.85;;;11.70;99.90;;;;;;5006900;28;20053;-87
2023/03/19 09:18:11;;;;;;;10.50;4.38;;;11.80;99.90;;;;;;5020030;28;20073;-85
2023/03/19 09:20:37;;;;;;;10.30;4.90;;;11.70;99.90;;;;;;5019437;28;20029;-86
2023/03/19 09:23:02;;;;;;;10.93;5.20;;;11.70;99.90;;;;;;5018414;28;20014;-85
2023/03/19 09:25:31;;;;;;;10.63;4.57;;;11.70;99.90;;;;;;5020943;28;20101;-86
2023/03/19 09:27:56;;;;;;;12.07;4.47;;;11.90;99.90;;;;;;5004774;28;20057;-88
2023/03/19 09:30:22;;;;;;;7.72;4.47;;;11.70;99.90;;;;;;5021445;28;20084;-85
2023/03/19 09:32:48;;;;;;;9.82;4.72;;;11.80;99.90;;;;;;5007432;28;20026;-83
2023/03/19 09:35:14;;;;;;;7.90;4.43;;;11.90;99.90;;;;;;5023292;28;20113;-86
2023/03/19 09:37:40;;;;;;;6.65;3.90;;;11.80;99.90;;;;;;5019364;28;20061;-86
2023/03/19 09:40:07;;;;;;;8.80;4.18;;;11.70;99.90;;;;;;5019601;28;20030;-86
2023/03/19 09:42:59;;;;;;;7.97;3.63;;;11.80;99.90;;;;;;5008837;28;20542;-84
2023/03/19 09:45:27;;;;;;;5.90;3.80;;;11.90;99.90;;;;;;4998276;28;20042;-84
2023/03/19 09:47:59;;;;;;;9.55;4.60;;;11.90;99.90;;;;;;5007299;28;20022;-87
2023/03/19 09:50:28;;;;;;;8.43;4.93;;;12.00;99.90;;;;;;5003930;28;20022;-83
2023/03/19 09:53:29;;;;;;;7.32;4.53;;;11.90;99.90;;;;;;5007524;28;20050;-86
2023/03/19 09:55:57;;;;;;;;;;;11.90;99.90;;;;;;5003379;28;20105;-85
2023/03/19 09:58:33;;;;;;;7.38;4.32;;;11.80;99.90;;;;;;5017949;28;19956;-87
2023/03/19 10:01:00;;;;;;;7.35;4.65;;;11.80;99.90;;;;;;5020369;28;20037;-86
2023/03/19 10:03:48;;;;;;;9.82;5.20;;;11.90;99.90;;;;;;5021282;28;20025;-84
2023/03/19 10:06:39;;;;;;;8.15;5.18;;;11.60;99.90;;;;;;5036624;28;20022;-86
2023/03/19 10:09:07;;;;;;;;;;;11.50;99.90;;;;;;5020498;28;20022;-82
2023/03/19 10:12:01;;;;;;;12.60;5.00;;;11.40;99.90;;;;;;5000799;28;19917;-84
2023/03/19 10:14:51;;;;;;;7.65;4.60;;;11.40;99.90;;;;;;5017876;28;20034;-85
2023/03/19 10:18:08;;;;;;;7.75;4.68;;;11.40;99.90;;;;;;5000220;28;20073;-84
2023/03/19 10:20:40;;;;;;;11.57;5.38;;;11.30;99.90;;;;;;5005266;28;20033;-85
2023/03/19 10:23:52;;;;;;;7.55;4.22;;;11.30;99.90;;;;;;5016570;28;20022;-85
2023/03/19 10:26:20;;;;;;;7.22;4.85;;;11.40;99.90;;;;;;5018173;28;20115;-86
2023/03/19 10:29:01;;;;;;;9.63;5.15;;;11.40;99.90;;;;;;5020153;28;20044;-87
2023/03/19 10:31:48;;;;;;;10.77;4.97;;;11.60;99.90;;;;;;5018221;28;20874;-84
2023/03/19 10:34:39;;;;;;;8.63;4.88;;;11.70;99.90;;;;;;5020020;28;20030;-85
2023/03/19 10:37:12;;;;;;;9.95;5.00;;;11.80;99.90;;;;;;5018094;28;20102;-84
2023/03/19 10:39:41;;;;;;;9.93;4.80;;;11.90;99.90;;;;;;5018993;28;20022;-89
2023/03/19 10:42:17;;;;;;;8.55;4.57;;;12.90;99.90;;;;;;5018714;28;20029;-87
2023/03/19 10:44:50;;;;;;;10.85;5.07;;;12.10;99.90;;;;;;5018814;28;20029;-85
2023/03/19 10:47:18;;;;;;;7.57;4.63;;;12.10;99.90;;;;;;5000623;28;20034;-87
2023/03/19 10:49:44;;;;;;;6.63;4.28;;;12.00;99.90;;;;;;5002352;28;20022;-85
2023/03/19 10:52:21;;;;;;;8.93;4.60;;;11.90;99.90;;;;;;5017501;28;20033;-83
2023/03/19 10:54:47;;;;;;;8.57;4.60;;;11.90;99.90;;;;;;5016982;28;20029;-89
2023/03/19 10:57:25;;;;;;;11.35;4.95;;;11.80;99.90;;;;;;5015669;28;20084;-87
2023/03/19 10:59:51;;;;;;;8.45;4.75;;;12.30;99.90;;;;;;5017266;28;20083;-84
2023/03/19 11:02:26;;;;;;;6.43;4.70;;;11.60;99.90;;;;;;5017813;28;20026;-87
2023/03/19 11:05:20;;;;;;;11.20;4.63;;;11.70;99.90;;;;;;5006304;28;20450;-86
2023/03/19 11:07:54;;;;;;;7.85;4.55;;;11.60;99.90;;;;;;5014604;28;20021;-83
2023/03/19 11:10:21;;;;;;;7.68;4.80;;;11.60;99.90;;;;;;5016417;28;20028;-86
2023/03/19 11:12:53;;;;;;;9.50;4.82;;;12.00;99.90;;;;;;5017586;28;20036;-86
2023/03/19 11:15:32;;;;;;;7.97;4.53;;;11.60;99.90;;;;;;4997968;28;20483;-86
2023/03/19 11:18:00;;;;;;;9.95;5.00;;;11.50;99.90;;;;;;4999207;28;20027;-86
2023/03/19 11:20:28;;;;;;;7.07;4.53;;;11.50;99.90;;;;;;5014038;28;20022;-89
2023/03/19 11:22:55;;;;;;;6.47;4.68;;;11.40;99.90;;;;;;5004540;28;20238;-85
2023/03/19 11:25:35;;;;;;;7.80;4.28;;;11.40;99.90;;;;;;4997519;28;20026;-88
2023/03/19 11:28:05;;;;;;;7.57;4.75;;;11.40;99.90;;;;;;5006963;28;20022;-86
2023/03/19 11:30:54;;;;;;;7.90;4.65;;;11.50;99.90;;;;;;5015968;28;20084;-86
2023/03/19 11:33:23;;;;;;;7.30;4.90;;;11.60;99.90;;;;;;4986605;28;20037;-88
2023/03/19 11:35:53;;;;;;;6.22;4.40;;;11.60;99.90;;;;;;5016006;28;20025;-87
2023/03/19 11:38:43;;;;;;;7.13;4.30;;;11.60;99.90;;;;;;5017543;28;20026;-87
2023/03/19 11:41:26;;;;;;;6.82;4.40;;;11.70;99.90;;;;;;4995701;28;20394;-87
2023/03/19 11:44:14;;;;;;;7.30;4.38;;;11.60;99.90;;;;;;5004871;28;20025;-85
2023/03/19 11:46:43;;;;;;;6.18;3.67;;;11.60;99.90;;;;;;5018189;28;20157;-90
2023/03/19 11:49:24;;;;;;;7.60;3.90;;;11.60;99.90;;;;;;5004367;28;20022;-88
2023/03/19 11:51:58;;;;;;;;;;;11.60;99.90;;;;;;5003026;28;20158;-83
2023/03/19 11:54:55;;;;;;;8.20;4.53;;;11.50;99.90;;;;;;5002151;28;19917;-84
2023/03/19 11:57:53;;;;;;;8.48;4.53;;;11.40;99.90;;;;;;4966954;28;20066;-84
2023/03/19 12:00:45;;;;;;;6.32;4.30;;;11.50;99.90;;;;;;4997065;28;20422;-85
2023/03/19 12:03:17;;;;;;;6.57;4.28;;;11.60;99.90;;;;;;4994116;28;20028;-86
2023/03/19 12:06:06;;;;;;;6.03;3.88;;;11.70;99.90;;;;;;5002348;28;20026;-84
2023/03/19 12:08:49;;;;;;;7.07;4.20;;;11.90;99.90;;;;;;5005033;28;20025;-84
2023/03/19 12:11:33;;;;;;;7.70;4.60;;;11.90;99.90;;;;;;5005989;28;20042;-84
2023/03/19 12:14:34;;;;;;;6.50;4.10;;;11.90;99.90;;;;;;5004228;28;20080;-82
2023/03/19 12:17:17;;;;;;;;;;;12.10;99.90;;;;;;4934921;29;20031;-82
2023/03/19 12:20:16;;;;;;;6.85;3.90;;;12.30;99.90;;;;;;4995830;28;19936;-87
2023/03/19 12:22:57;;;;;;;6.43;3.70;;;12.60;99.90;;;;;;5008255;28;20029;-82
2023/03/19 12:25:29;;;;;;;8.20;4.10;;;12.70;99.90;;;;;;4999742;28;20466;-87
2023/03/19 12:28:06;;;;;;;5.70;3.60;;;13.50;99.90;;;;;;5008251;28;20086;-86
2023/03/19 12:30:38;;;;;;;5.90;3.33;;;13.10;99.90;;;;;;5006814;28;20060;-86
2023/03/19 12:33:13;;;;;;;4.40;2.67;;;13.30;99.90;;;;;;5000820;28;20037;-85
2023/03/19 12:35:42;;;;;;;4.22;2.97;;;13.40;99.90;;;;;;5002655;28;20055;-85
2023/03/19 12:38:23;;;;;;;4.68;2.85;;;13.40;99.90;;;;;;5008157;28;20025;-85
2023/03/19 12:41:15;;;;;;;7.82;3.22;;;13.60;99.90;;;;;;5001208;28;20040;-86
2023/03/19 12:44:03;;;;;;;3.88;2.63;;;13.80;99.90;;;;;;5008574;28;20041;-88
2023/03/19 12:46:43;;;;;;;4.93;3.00;;;13.80;99.90;;;;;;4999313;28;20594;-84
2023/03/19 12:49:35;;;;;;;4.60;2.80;;;13.80;99.90;;;;;;5003265;28;20030;-85
2023/03/19 12:52:25;;;;;;;3.63;2.40;;;13.80;99.90;;;;;;5000210;28;20478;-87
2023/03/19 12:55:17;;;;;;;4.68;2.47;;;13.80;99.90;;;;;;5005426;28;20061;-85
2023/03/19 12:57:50;;;;;;;3.35;2.20;;;13.80;99.90;;;;;;5000399;28;20320;-88
2023/03/19 13:00:34;;;;;;;4.13;2.75;;;13.50;99.90;;;;;;5007836;28;20026;-87
2023/03/19 13:03:12;;;;;;;3.88;2.47;;;13.60;99.90;;;;;;5009280;28;20032;-86
2023/03/19 13:05:45;;;;;;;4.43;2.53;;;13.70;99.90;;;;;;5005627;28;20124;-85
2023/03/19 13:08:38;;;;;;;4.30;2.05;;;13.80;99.90;;;;;;5006376;28;20108;-85
2023/03/19 13:11:13;;;;;;;2.92;2.00;;;13.90;99.90;;;;;;5000071;28;20597;-82
2023/03/19 13:13:45;;;;;;;5.00;2.03;;;14.00;99.90;;;;;;4999434;28;20030;-87
2023/03/19 13:16:37;;;;;;;5.18;2.10;;;14.00;99.90;;;;;;5001919;28;20046;-85
2023/03/19 13:19:22;;;;;;;2.00;1.50;;;14.00;99.90;;;;;;5003962;28;20041;-84
2023/03/19 13:21:51;;;;;;;4.35;2.28;;;13.80;99.90;;;;;;5000884;28;20030;-85
2023/03/19 13:24:25;;;;;;;4.05;2.00;;;13.80;99.90;;;;;;5003730;28;20029;-85